createdAt,value
2018-07-25T00:00:35.802Z,99.90
2018-07-25T00:03:04.224Z,99.90
2018-07-25T00:05:32.552Z,99.90
2018-07-25T00:08:00.947Z,99.90
2018-07-25T00:10:34.577Z,99.90
2018-07-25T00:13:02.751Z,99.90
2018-07-25T00:15:34.061Z,99.90
2018-07-25T00:18:03.055Z,99.90
2018-07-25T00:20:31.652Z,99.90
2018-07-25T00:23:00.430Z,99.90
2018-07-25T00:25:29.316Z,99.90
2018-07-25T00:27:58.211Z,99.90
2018-07-25T00:30:26.494Z,99.90
2018-07-25T00:32:54.717Z,99.90
2018-07-25T00:35:22.934Z,99.90
2018-07-25T00:37:51.163Z,99.90
2018-07-25T00:40:19.481Z,99.90
2018-07-25T00:42:47.731Z,99.90
2018-07-25T00:45:15.938Z,99.90
2018-07-25T00:47:44.125Z,99.90
2018-07-25T00:50:12.308Z,99.90
2018-07-25T00:52:40.505Z,99.90
2018-07-25T00:55:08.815Z,99.90
2018-07-25T00:57:37.008Z,99.90
2018-07-25T01:00:05.485Z,99.90
2018-07-25T01:02:33.734Z,99.90
2018-07-25T01:05:01.945Z,99.90
2018-07-25T01:07:30.334Z,99.90
2018-07-25T01:09:58.666Z,99.90
2018-07-25T01:12:26.923Z,99.90
2018-07-25T01:14:55.136Z,99.90
2018-07-25T01:17:23.376Z,99.90
2018-07-25T01:19:51.631Z,99.90
2018-07-25T01:22:19.833Z,99.90
2018-07-25T01:24:48.060Z,99.90
2018-07-25T01:27:16.279Z,99.90
2018-07-25T01:29:44.482Z,99.90
2018-07-25T01:32:12.678Z,99.90
2018-07-25T01:34:40.947Z,99.90
2018-07-25T01:37:09.186Z,99.90
2018-07-25T01:39:37.425Z,99.90
2018-07-25T01:42:05.863Z,99.90
2018-07-25T01:44:34.099Z,99.90
2018-07-25T01:47:02.304Z,99.90
2018-07-25T01:49:30.532Z,99.90
2018-07-25T01:51:58.756Z,99.90
2018-07-25T01:54:26.964Z,99.90
2018-07-25T01:56:55.155Z,99.90
2018-07-25T01:59:26.247Z,99.90
2018-07-25T02:01:54.598Z,99.90
2018-07-25T02:04:22.827Z,99.90
2018-07-25T02:06:51.052Z,99.90
2018-07-25T02:09:19.231Z,99.90
2018-07-25T02:11:47.448Z,99.90
2018-07-25T02:14:15.617Z,99.90
2018-07-25T02:16:43.870Z,99.90
2018-07-25T02:21:39.997Z,99.90
2018-07-25T02:24:08.196Z,99.90
2018-07-25T02:29:04.386Z,99.90
2018-07-25T02:31:32.682Z,99.90
2018-07-25T02:34:06.205Z,99.90
2018-07-25T02:36:34.439Z,99.90
2018-07-25T02:39:02.703Z,99.90
2018-07-25T02:41:30.864Z,99.90
2018-07-25T02:43:59.068Z,99.90
2018-07-25T02:46:27.262Z,99.90
2018-07-25T02:48:55.468Z,99.90
2018-07-25T02:51:23.714Z,99.90
2018-07-25T02:53:51.950Z,99.90
2018-07-25T02:56:20.148Z,99.90
2018-07-25T02:58:48.311Z,99.90
2018-07-25T03:01:16.571Z,99.90
2018-07-25T03:03:44.761Z,99.90
2018-07-25T03:06:12.935Z,99.90
2018-07-25T03:08:41.124Z,99.90
2018-07-25T03:11:09.307Z,99.90
2018-07-25T03:13:37.482Z,99.90
2018-07-25T03:16:07.012Z,99.90
2018-07-25T03:18:35.388Z,99.90
2018-07-25T03:21:03.685Z,99.90
2018-07-25T03:23:33.240Z,99.90
2018-07-25T03:26:01.392Z,99.90
2018-07-25T03:28:29.895Z,99.90
2018-07-25T03:30:58.473Z,99.90
2018-07-25T03:33:26.972Z,99.90
2018-07-25T03:35:56.375Z,99.90
2018-07-25T03:38:24.740Z,99.90
2018-07-25T03:40:52.876Z,99.90
2018-07-25T03:43:21.030Z,99.90
2018-07-25T03:45:49.174Z,99.90
2018-07-25T03:48:17.310Z,99.90
2018-07-25T03:50:45.491Z,99.90
2018-07-25T03:53:13.731Z,99.90
2018-07-25T03:55:41.902Z,99.90
2018-07-25T03:58:10.065Z,99.90
2018-07-25T04:00:38.302Z,99.90
2018-07-25T04:03:06.453Z,99.90
2018-07-25T04:05:34.615Z,99.90
2018-07-25T04:08:02.784Z,99.90
2018-07-25T04:10:30.987Z,99.90
2018-07-25T04:12:59.223Z,99.90
2018-07-25T04:15:27.420Z,99.90
2018-07-25T04:17:55.591Z,99.90
2018-07-25T04:20:23.800Z,99.90
2018-07-25T04:22:52.063Z,99.90
2018-07-25T04:25:20.408Z,99.90
2018-07-25T04:27:48.735Z,99.90
2018-07-25T04:30:17.691Z,99.90
2018-07-25T04:32:46.159Z,99.90
2018-07-25T04:35:15.731Z,99.90
2018-07-25T04:37:44.380Z,99.90
2018-07-25T04:40:12.646Z,99.90
2018-07-25T04:42:40.892Z,99.90
2018-07-25T04:45:10.273Z,99.90
2018-07-25T04:47:38.664Z,99.90
2018-07-25T04:50:07.243Z,99.90
2018-07-25T04:52:35.541Z,99.90
2018-07-25T04:55:04.461Z,99.90
2018-07-25T05:00:00.729Z,99.90
2018-07-25T05:02:29.093Z,99.90
2018-07-25T05:04:57.307Z,99.90
2018-07-25T05:07:25.565Z,99.90
2018-07-25T05:09:53.789Z,99.90
2018-07-25T05:12:21.990Z,99.90
2018-07-25T05:14:50.280Z,99.90
2018-07-25T05:19:46.455Z,99.90
2018-07-25T05:22:14.619Z,99.90
2018-07-25T05:24:42.772Z,99.90
2018-07-25T05:27:11.074Z,99.90
2018-07-25T05:29:39.223Z,99.90
2018-07-25T05:32:07.427Z,99.90
2018-07-25T05:34:35.586Z,99.90
2018-07-25T05:37:03.782Z,99.90
2018-07-25T05:39:34.100Z,99.90
2018-07-25T05:42:02.360Z,99.90
2018-07-25T05:44:30.603Z,99.90
2018-07-25T05:46:58.810Z,99.90
2018-07-25T05:49:27.036Z,99.90
2018-07-25T05:51:58.687Z,99.90
2018-07-25T05:54:27.081Z,99.90
2018-07-25T05:56:55.336Z,99.90
2018-07-25T05:59:23.976Z,99.90
2018-07-25T06:01:52.198Z,99.90
2018-07-25T06:04:20.517Z,99.90
2018-07-25T06:06:48.658Z,99.90
2018-07-25T06:09:16.833Z,99.90
2018-07-25T06:11:45.005Z,99.90
2018-07-25T06:14:13.196Z,99.90
2018-07-25T06:19:09.687Z,99.90
2018-07-25T06:21:38.511Z,99.90
2018-07-25T06:24:06.755Z,99.90
2018-07-25T06:26:34.956Z,99.90
2018-07-25T06:29:03.176Z,99.90
2018-07-25T06:31:31.348Z,99.90
2018-07-25T06:33:59.538Z,99.90
2018-07-25T06:36:28.322Z,99.90
2018-07-25T06:38:56.500Z,99.90
2018-07-25T06:41:24.885Z,99.90
2018-07-25T06:43:53.186Z,99.90
2018-07-25T06:46:21.858Z,99.90
2018-07-25T06:48:50.038Z,99.90
2018-07-25T06:51:18.200Z,99.90
2018-07-25T06:53:46.465Z,99.90
2018-07-25T06:56:15.480Z,99.90
2018-07-25T06:58:43.891Z,99.90
2018-07-25T07:01:12.104Z,99.90
2018-07-25T07:03:40.309Z,99.90
2018-07-25T07:06:08.750Z,99.90
2018-07-25T07:08:36.998Z,99.90
2018-07-25T07:11:05.312Z,99.90
2018-07-25T07:13:33.720Z,99.90
2018-07-25T07:16:01.899Z,99.90
2018-07-25T07:18:30.084Z,99.90
2018-07-25T07:20:58.293Z,99.90
2018-07-25T07:23:26.483Z,99.90
2018-07-25T07:25:54.830Z,99.90
2018-07-25T07:28:22.960Z,99.90
2018-07-25T07:30:51.133Z,99.90
2018-07-25T07:33:19.356Z,99.90
2018-07-25T07:35:47.854Z,99.90
2018-07-25T07:38:16.016Z,99.90
2018-07-25T07:40:44.198Z,99.90
2018-07-25T07:43:12.411Z,99.90
2018-07-25T07:45:40.649Z,99.90
2018-07-25T07:48:08.847Z,99.90
2018-07-25T07:50:37.105Z,99.90
2018-07-25T07:53:05.858Z,98.30
2018-07-25T07:55:34.138Z,98.10
2018-07-25T07:58:02.441Z,97.30
2018-07-25T08:00:30.840Z,96.60
2018-07-25T08:02:59.096Z,96.60
2018-07-25T08:05:27.402Z,95.20
2018-07-25T08:07:55.680Z,94.90
2018-07-25T08:10:24.008Z,94.60
2018-07-25T08:12:52.349Z,94.30
2018-07-25T08:15:20.606Z,93.90
2018-07-25T08:17:48.914Z,94.50
2018-07-25T08:20:17.206Z,93.90
2018-07-25T08:22:45.362Z,94.80
2018-07-25T08:25:13.516Z,94.60
2018-07-25T08:27:41.687Z,94.30
2018-07-25T08:30:09.900Z,95.30
2018-07-25T08:32:38.126Z,94.80
2018-07-25T08:35:06.323Z,95.40
2018-07-25T08:37:34.507Z,95.20
2018-07-25T08:40:02.840Z,94.50
2018-07-25T08:42:31.422Z,93.80
2018-07-25T08:44:59.644Z,93.00
2018-07-25T08:47:27.803Z,92.60
2018-07-25T08:49:55.994Z,92.30
2018-07-25T08:52:24.292Z,92.20
2018-07-25T08:54:52.529Z,91.20
2018-07-25T08:57:20.699Z,90.80
2018-07-25T08:59:48.888Z,89.80
2018-07-25T09:02:17.076Z,90.30
2018-07-25T09:04:45.251Z,90.40
2018-07-25T09:07:13.535Z,89.90
2018-07-25T09:09:42.484Z,90.10
2018-07-25T09:12:11.037Z,90.20
2018-07-25T09:14:39.446Z,90.00
2018-07-25T09:17:11.412Z,88.70
2018-07-25T09:19:39.675Z,87.90
2018-07-25T09:22:07.860Z,86.30
2018-07-25T09:24:36.165Z,83.50
2018-07-25T09:27:04.736Z,83.30
2018-07-25T09:29:32.995Z,83.80
2018-07-25T09:32:01.272Z,80.50
2018-07-25T09:34:29.771Z,81.60
2018-07-25T09:36:58.707Z,79.40
2018-07-25T09:39:26.948Z,76.40
2018-07-25T09:41:55.282Z,72.20
2018-07-25T09:44:23.634Z,72.80
2018-07-25T09:46:52.042Z,68.60
2018-07-25T09:49:20.416Z,70.10
2018-07-25T09:51:49.160Z,67.00
2018-07-25T09:54:17.454Z,67.20
2018-07-25T09:56:45.825Z,62.50
2018-07-25T09:59:14.347Z,62.90
2018-07-25T10:01:42.744Z,60.50
2018-07-25T10:04:11.047Z,60.10
2018-07-25T10:06:39.452Z,61.80
2018-07-25T10:09:09.871Z,61.20
2018-07-25T10:11:38.359Z,58.00
2018-07-25T10:14:06.632Z,56.90
2018-07-25T10:16:34.897Z,59.00
2018-07-25T10:19:03.279Z,56.60
2018-07-25T10:21:31.546Z,57.00
2018-07-25T10:24:00.220Z,54.70
2018-07-25T10:26:28.571Z,55.70
2018-07-25T10:28:57.255Z,54.80
2018-07-25T10:31:25.628Z,54.70
2018-07-25T10:33:53.944Z,55.30
2018-07-25T10:36:22.260Z,55.80
2018-07-25T10:38:50.485Z,59.40
2018-07-25T10:41:19.070Z,66.60
2018-07-25T10:43:47.777Z,70.50
2018-07-25T10:46:18.952Z,64.60
2018-07-25T10:48:47.724Z,59.40
2018-07-25T10:51:16.031Z,59.70
2018-07-25T10:53:44.977Z,56.60
2018-07-25T10:56:13.319Z,56.60
2018-07-25T10:58:41.519Z,53.60
2018-07-25T11:01:09.775Z,54.70
2018-07-25T11:03:37.975Z,55.20
2018-07-25T11:06:06.219Z,54.70
2018-07-25T11:08:34.420Z,55.00
2018-07-25T11:11:02.612Z,55.70
2018-07-25T11:13:30.904Z,53.70
2018-07-25T11:15:59.131Z,55.10
2018-07-25T11:18:27.321Z,52.50
2018-07-25T11:20:55.569Z,54.00
2018-07-25T11:23:23.771Z,50.30
2018-07-25T11:25:52.287Z,50.10
2018-07-25T11:28:20.494Z,51.20
2018-07-25T11:30:48.772Z,53.20
2018-07-25T11:33:17.025Z,51.50
2018-07-25T11:35:45.369Z,51.50
2018-07-25T11:38:13.704Z,51.70
2018-07-25T11:40:41.861Z,52.90
2018-07-25T11:43:10.072Z,52.10
2018-07-25T11:45:38.325Z,52.70
2018-07-25T11:48:06.529Z,52.20
2018-07-25T11:50:35.378Z,51.90
2018-07-25T11:53:03.591Z,52.40
2018-07-25T11:55:32.017Z,52.80
2018-07-25T11:58:00.225Z,52.40
2018-07-25T12:00:28.537Z,52.80
2018-07-25T12:02:56.832Z,53.10
2018-07-25T12:05:25.057Z,54.70
2018-07-25T12:07:53.272Z,53.10
2018-07-25T12:10:22.331Z,51.00
2018-07-25T12:12:50.687Z,51.70
2018-07-25T12:17:47.050Z,52.00
2018-07-25T12:20:15.388Z,49.80
2018-07-25T12:22:43.568Z,50.90
2018-07-25T12:25:11.756Z,51.50
2018-07-25T12:27:39.974Z,49.70
2018-07-25T12:30:08.582Z,53.00
2018-07-25T12:32:36.848Z,50.30
2018-07-25T12:35:05.160Z,50.60
2018-07-25T12:37:34.049Z,50.70
2018-07-25T12:40:02.273Z,50.50
2018-07-25T12:42:30.500Z,50.00
2018-07-25T12:44:58.765Z,50.80
2018-07-25T12:47:26.963Z,47.90
2018-07-25T12:49:55.275Z,46.50
2018-07-25T12:52:23.667Z,47.50
2018-07-25T12:54:51.983Z,47.70
2018-07-25T12:57:20.123Z,49.70
2018-07-25T12:59:48.863Z,50.00
2018-07-25T13:02:17.051Z,49.70
2018-07-25T13:04:46.102Z,48.20
2018-07-25T13:07:14.269Z,48.40
2018-07-25T13:09:48.456Z,48.40
2018-07-25T13:12:16.871Z,49.10
2018-07-25T13:14:45.099Z,49.50
2018-07-25T13:17:13.305Z,48.70
2018-07-25T13:19:42.216Z,48.10
2018-07-25T13:22:10.440Z,49.20
2018-07-25T13:24:38.647Z,49.50
2018-07-25T13:27:06.865Z,49.20
2018-07-25T13:29:35.069Z,48.00
2018-07-25T13:32:04.695Z,48.00
2018-07-25T13:34:32.974Z,47.90
2018-07-25T13:37:01.292Z,48.80
2018-07-25T13:39:29.470Z,48.10
2018-07-25T13:41:57.709Z,47.70
2018-07-25T13:44:25.947Z,48.40
2018-07-25T13:46:54.209Z,48.30
2018-07-25T13:49:22.593Z,48.60
2018-07-25T13:51:50.841Z,48.90
2018-07-25T13:54:19.081Z,48.50
2018-07-25T13:56:47.297Z,48.80
2018-07-25T13:59:15.573Z,49.50
2018-07-25T14:01:43.787Z,50.30
2018-07-25T14:04:11.987Z,49.50
2018-07-25T14:06:40.285Z,48.00
2018-07-25T14:09:10.028Z,47.50
2018-07-25T14:11:38.655Z,48.10
2018-07-25T14:14:07.044Z,48.30
2018-07-25T14:16:36.284Z,48.10
2018-07-25T14:19:04.618Z,48.00
2018-07-25T14:21:32.952Z,48.20
2018-07-25T14:24:01.540Z,47.20
2018-07-25T14:26:29.572Z,47.10
2018-07-25T14:28:58.074Z,46.50
2018-07-25T14:31:26.572Z,47.50
2018-07-25T14:33:55.751Z,47.60
2018-07-25T14:36:24.393Z,47.20
2018-07-25T14:38:52.582Z,48.40
2018-07-25T14:41:21.251Z,46.80
2018-07-25T14:43:50.115Z,46.50
2018-07-25T14:46:18.577Z,47.90
2018-07-25T14:48:47.170Z,47.20
2018-07-25T14:51:15.527Z,47.20
2018-07-25T14:53:43.671Z,44.90
2018-07-25T14:56:11.934Z,44.50
2018-07-25T14:58:40.383Z,45.60
2018-07-25T15:01:08.715Z,45.80
2018-07-25T15:03:37.003Z,46.90
2018-07-25T15:06:05.266Z,45.80
2018-07-25T15:08:33.481Z,45.30
2018-07-25T15:11:01.728Z,44.50
2018-07-25T15:13:30.104Z,44.20
2018-07-25T15:16:01.135Z,41.90
2018-07-25T15:18:29.441Z,42.70
2018-07-25T15:20:57.652Z,43.00
2018-07-25T15:23:37.721Z,45.60
2018-07-25T15:26:05.925Z,46.00
2018-07-25T15:28:34.128Z,45.60
2018-07-25T15:31:02.301Z,45.40
2018-07-25T15:33:30.490Z,45.60
2018-07-25T15:35:58.828Z,45.00
2018-07-25T15:38:27.531Z,43.80
2018-07-25T15:40:56.066Z,45.60
2018-07-25T15:43:24.810Z,44.10
2018-07-25T15:45:52.967Z,45.60
2018-07-25T15:48:21.246Z,47.00
2018-07-25T15:50:49.450Z,45.30
2018-07-25T15:53:17.641Z,44.20
2018-07-25T15:55:45.945Z,45.40
2018-07-25T15:58:14.618Z,45.70
2018-07-25T16:00:43.803Z,45.20
2018-07-25T16:03:12.072Z,43.80
2018-07-25T16:05:40.628Z,42.90
2018-07-25T16:08:08.916Z,43.50
2018-07-25T16:10:37.116Z,41.70
2018-07-25T16:13:05.745Z,42.40
2018-07-25T16:15:34.067Z,43.30
2018-07-25T16:18:02.296Z,43.80
2018-07-25T16:20:30.599Z,43.10
2018-07-25T16:22:58.893Z,43.80
2018-07-25T16:25:27.132Z,42.80
2018-07-25T16:27:55.601Z,43.30
2018-07-25T16:30:23.793Z,44.30
2018-07-25T16:32:52.633Z,44.50
2018-07-25T16:35:21.095Z,43.50
2018-07-25T16:37:50.877Z,43.70
2018-07-25T16:40:23.432Z,44.40
2018-07-25T16:42:51.658Z,44.30
2018-07-25T16:45:19.852Z,47.10
2018-07-25T16:47:51.817Z,44.10
2018-07-25T16:50:19.978Z,44.30
2018-07-25T16:52:48.561Z,44.40
2018-07-25T16:55:19.062Z,46.80
2018-07-25T16:57:47.542Z,45.10
2018-07-25T17:00:17.054Z,46.20
2018-07-25T17:02:48.474Z,45.90
2018-07-25T17:05:16.719Z,47.50
2018-07-25T17:07:45.455Z,47.10
2018-07-25T17:10:15.908Z,46.10
2018-07-25T17:12:48.751Z,46.90
2018-07-25T17:15:17.328Z,46.50
2018-07-25T17:17:45.579Z,46.50
2018-07-25T17:22:45.186Z,46.20
2018-07-25T17:25:23.802Z,48.80
2018-07-25T17:27:52.058Z,50.50
2018-07-25T17:30:27.928Z,52.20
2018-07-25T17:32:56.158Z,48.90
2018-07-25T17:35:25.100Z,50.60
2018-07-25T17:37:53.547Z,52.80
2018-07-25T17:40:22.151Z,51.20
2018-07-25T17:43:23.062Z,54.80
2018-07-25T17:45:51.879Z,57.40
2018-07-25T17:48:47.687Z,56.30
2018-07-25T17:51:15.925Z,55.10
2018-07-25T17:53:44.155Z,54.30
2018-07-25T17:56:12.376Z,55.30
2018-07-25T17:58:40.589Z,56.60
2018-07-25T18:01:08.828Z,58.10
2018-07-25T18:03:37.342Z,55.60
2018-07-25T18:06:09.696Z,54.00
2018-07-25T18:08:54.122Z,54.60
2018-07-25T18:11:23.323Z,55.20
2018-07-25T18:13:56.862Z,56.40
2018-07-25T18:16:25.152Z,57.40
2018-07-25T18:18:53.559Z,57.20
2018-07-25T18:21:24.041Z,58.10
2018-07-25T18:23:52.381Z,57.50
2018-07-25T18:26:20.696Z,58.30
2018-07-25T18:28:50.333Z,59.40
2018-07-25T18:31:19.024Z,60.80
2018-07-25T18:33:47.625Z,62.20
2018-07-25T18:36:15.940Z,62.60
2018-07-25T18:38:45.448Z,63.90
2018-07-25T18:41:13.734Z,65.30
2018-07-25T18:43:42.033Z,66.60
2018-07-25T18:46:11.103Z,67.30
2018-07-25T18:48:39.471Z,68.30
2018-07-25T18:51:07.896Z,68.00
2018-07-25T18:53:36.993Z,69.10
2018-07-25T18:56:05.385Z,70.50
2018-07-25T18:58:33.621Z,72.60
2018-07-25T19:01:01.864Z,75.40
2018-07-25T19:03:30.253Z,78.00
2018-07-25T19:05:58.508Z,80.90
2018-07-25T19:08:26.962Z,84.50
2018-07-25T19:10:55.323Z,90.20
2018-07-25T19:15:56.928Z,96.40
2018-07-25T19:18:25.182Z,99.40
2018-07-25T19:20:53.433Z,99.90
2018-07-25T19:23:21.651Z,99.90
2018-07-25T19:25:49.860Z,99.90
2018-07-25T19:28:18.115Z,99.90
2018-07-25T19:30:46.383Z,99.90
2018-07-25T19:33:14.596Z,99.90
2018-07-25T19:35:42.986Z,99.90
2018-07-25T19:38:43.844Z,99.90
2018-07-25T19:41:17.169Z,99.90
2018-07-25T19:43:46.417Z,99.90
2018-07-25T19:46:14.997Z,99.90
2018-07-25T19:48:43.420Z,99.90
2018-07-25T19:51:11.805Z,99.90
2018-07-25T19:53:41.183Z,99.90
2018-07-25T19:56:09.621Z,99.90
2018-07-25T19:58:48.514Z,99.90
2018-07-25T20:01:17.574Z,99.90
2018-07-25T20:03:47.888Z,99.90
2018-07-25T20:06:20.104Z,99.90
2018-07-25T20:08:48.712Z,99.90
2018-07-25T20:11:17.315Z,99.90
2018-07-25T20:13:51.085Z,99.90
2018-07-25T20:16:19.609Z,99.90
2018-07-25T20:18:47.881Z,99.90
2018-07-25T20:21:16.287Z,99.90
2018-07-25T20:23:45.629Z,99.90
2018-07-25T20:26:13.941Z,99.90
2018-07-25T20:28:42.394Z,99.90
2018-07-25T20:31:20.685Z,99.90
2018-07-25T20:33:49.136Z,99.90
2018-07-25T20:36:17.546Z,99.90
2018-07-25T20:39:18.991Z,99.90
2018-07-25T20:41:47.628Z,99.90
2018-07-25T20:44:15.963Z,99.90
2018-07-25T20:46:49.746Z,99.90
2018-07-25T20:49:18.837Z,99.90
2018-07-25T20:51:47.212Z,99.90
2018-07-25T20:54:15.552Z,99.90
2018-07-25T20:56:44.545Z,99.90
2018-07-25T20:59:12.904Z,99.90
2018-07-25T21:01:41.176Z,99.90
2018-07-25T21:04:14.361Z,99.90
2018-07-25T21:06:42.840Z,99.90
2018-07-25T21:09:12.152Z,99.90
2018-07-25T21:11:42.165Z,99.90
2018-07-25T21:16:41.458Z,99.90
2018-07-25T21:19:15.247Z,99.90
2018-07-25T21:21:43.724Z,99.90
2018-07-25T21:24:12.108Z,99.90
2018-07-25T21:26:40.468Z,99.90
2018-07-25T21:29:10.755Z,99.90
2018-07-25T21:31:42.891Z,99.90
2018-07-25T21:34:11.522Z,99.90
2018-07-25T21:36:39.917Z,99.90
2018-07-25T21:39:10.000Z,99.90
2018-07-25T21:41:38.921Z,99.90
2018-07-25T21:44:07.356Z,99.90
2018-07-25T21:46:36.019Z,99.90
2018-07-25T21:49:04.749Z,99.90
2018-07-25T21:51:33.501Z,99.90
2018-07-25T21:54:08.314Z,99.90
2018-07-25T21:56:37.059Z,99.90
2018-07-25T21:59:05.755Z,99.90
2018-07-25T22:01:34.319Z,99.90
2018-07-25T22:04:02.969Z,99.90
2018-07-25T22:06:32.127Z,99.90
2018-07-25T22:09:00.626Z,99.90
2018-07-25T22:11:28.849Z,99.90
2018-07-25T22:13:58.120Z,99.90
2018-07-25T22:16:27.558Z,99.90
2018-07-25T22:18:56.012Z,99.90
2018-07-25T22:21:24.215Z,99.90
2018-07-25T22:23:52.385Z,99.90
2018-07-25T22:26:20.555Z,99.90
2018-07-25T22:28:48.755Z,99.90
2018-07-25T22:31:19.056Z,99.90
2018-07-25T22:33:47.300Z,99.90
2018-07-25T22:36:15.492Z,99.90
2018-07-25T22:38:43.775Z,99.90
2018-07-25T22:41:18.199Z,99.90
2018-07-25T22:43:46.435Z,99.90
2018-07-25T22:46:14.685Z,99.90
2018-07-25T22:48:42.921Z,99.90
2018-07-25T22:51:11.195Z,99.90
2018-07-25T22:53:39.750Z,99.90
2018-07-25T22:56:07.995Z,99.90
2018-07-25T22:58:36.403Z,99.90
2018-07-25T23:01:04.664Z,99.90
2018-07-25T23:03:32.910Z,99.90
2018-07-25T23:06:01.149Z,99.90
2018-07-25T23:08:29.489Z,99.90
2018-07-25T23:10:57.809Z,99.90
2018-07-25T23:13:26.074Z,99.90
2018-07-25T23:15:54.359Z,99.90
2018-07-25T23:18:22.621Z,99.90
2018-07-25T23:20:50.901Z,99.90
2018-07-25T23:23:19.172Z,99.90
2018-07-25T23:25:47.439Z,99.90
2018-07-25T23:28:15.695Z,99.90
2018-07-25T23:42:06.744Z,99.90
2018-07-25T23:44:34.978Z,99.90
2018-07-25T23:49:53.736Z,99.90
2018-07-25T23:52:22.007Z,99.90
2018-07-25T23:54:50.218Z,99.90
2018-07-25T23:57:18.428Z,99.90
2018-07-25T23:59:46.758Z,99.90
